Terminal Aerodrome Forecast
Issued by NWS

Home | Current Version | Previous Version | Text Only | Print | Product List | Glossary On
Versions: 1 2 3 4 5 6 7 8 9 10 11 12 13
939
FTUS44 KEPZ 202320
TAFLRU
TAF
KLRU 202320Z 2100/2124 VRB05KT P6SM SCT015 BKN040
     FM210600 07005KT P6SM SCT015 BKN030
      TEMPO 2110/2114 1SM BR BKN008
     FM211600 22005KT P6SM SCT025 BKN050=

USA.gov is the U.S. government's official web portal to all federal, state and local government web resources and services.